Time;durP1;ratioP1;P1;durP2;ratioP2;P2;SDS_P1;SDS_P2;PMS_P1;PMS_P2;Temp;Humidity;BMP_temperature;BMP_pressure;BME280_temperature;BME280_humidity;BME280_pressure;Samples;Min_cycle;Max_cycle;Signal;HPM_P1;HPM_P2
2021/04/05 00:00:50;;;;;;;7.07;6.47;;;5.90;99.90;;;;;;5068148;28;20215;-79
2021/04/05 00:03:16;;;;;;;8.20;7.17;;;5.90;99.90;;;;;;5070177;28;20336;-88
2021/04/05 00:05:43;;;;;;;7.23;6.63;;;5.80;99.90;;;;;;5071217;28;20639;-90
2021/04/05 00:08:10;;;;;;;7.50;6.80;;;5.70;99.90;;;;;;5071661;28;20204;-89
2021/04/05 00:10:42;;;;;;;7.50;6.63;;;5.70;99.90;;;;;;5071545;28;20218;-89
2021/04/05 00:13:12;;;;;;;7.97;7.00;;;5.70;99.90;;;;;;5071343;28;20227;-90
2021/04/05 00:15:38;;;;;;;8.33;7.53;;;5.60;99.90;;;;;;5070939;28;20771;-90
2021/04/05 00:18:04;;;;;;;9.73;8.47;;;5.60;99.90;;;;;;5071005;28;20527;-88
2021/04/05 00:20:35;;;;;;;10.43;8.93;;;5.50;99.90;;;;;;5071440;28;20277;-88
2021/04/05 00:23:03;;;;;;;9.87;8.30;;;5.60;99.90;;;;;;5071387;28;20273;-87
2021/04/05 00:25:30;;;;;;;10.60;9.50;;;5.50;99.90;;;;;;5070666;28;20218;-85
2021/04/05 00:27:56;;;;;;;10.40;9.20;;;5.50;99.90;;;;;;5070253;28;20284;-84
2021/04/05 00:30:26;;;;;;;9.33;8.43;;;5.50;99.90;;;;;;5070150;28;20241;-84
2021/04/05 00:32:53;;;;;;;10.70;9.17;;;5.40;99.90;;;;;;5070182;28;20332;-85
2021/04/05 00:35:21;;;;;;;10.17;8.73;;;5.40;99.90;;;;;;5068852;28;20670;-83
2021/04/05 00:37:48;;;;;;;9.17;8.30;;;5.50;99.90;;;;;;5069702;28;20200;-84
2021/04/05 00:40:18;;;;;;;9.20;8.30;;;5.50;99.90;;;;;;5069675;28;20207;-83
2021/04/05 00:42:46;;;;;;;9.33;8.43;;;5.30;99.90;;;;;;5069507;28;20224;-83
2021/04/05 00:45:15;;;;;;;7.33;6.50;;;5.30;99.90;;;;;;5069396;28;20666;-83
2021/04/05 00:47:43;;;;;;;8.00;7.20;;;5.30;99.90;;;;;;5072163;28;20215;-84
2021/04/05 00:50:10;;;;;;;6.90;6.30;;;5.40;99.90;;;;;;5073631;28;20203;-85
2021/04/05 00:52:37;;;;;;;6.70;6.00;;;5.50;99.90;;;;;;5074196;28;20204;-86
2021/04/05 00:55:04;;;;;;;8.93;6.30;;;5.50;99.90;;;;;;5073738;28;20670;-85
2021/04/05 00:57:34;;;;;;;6.57;5.40;;;5.30;99.90;;;;;;5074112;28;20623;-85
2021/04/05 01:00:00;;;;;;;8.73;6.03;;;5.20;99.90;;;;;;5074252;28;20207;-87
2021/04/05 01:02:27;;;;;;;6.37;5.80;;;5.10;99.90;;;;;;5074311;28;20270;-87
2021/04/05 01:04:53;;;;;;;6.13;5.57;;;5.00;99.90;;;;;;5074381;28;20200;-87
2021/04/05 01:07:19;;;;;;;6.07;5.33;;;4.90;99.90;;;;;;5074489;28;20225;-87
2021/04/05 01:09:46;;;;;;;6.37;5.77;;;4.90;99.90;;;;;;5073921;28;20211;-85
2021/04/05 01:12:12;;;;;;;8.83;6.30;;;4.90;99.90;;;;;;5074370;28;20208;-87
2021/04/05 01:14:39;;;;;;;8.07;5.97;;;4.90;99.90;;;;;;5072522;28;20771;-90
2021/04/05 01:17:05;;;;;;;6.00;5.40;;;4.90;99.90;;;;;;5073995;28;20203;-88
2021/04/05 01:19:31;;;;;;;6.53;5.90;;;4.80;99.90;;;;;;5074025;28;20203;-87
2021/04/05 01:21:58;;;;;;;6.10;5.50;;;4.80;99.90;;;;;;5073455;28;20239;-87
2021/04/05 01:24:26;;;;;;;6.73;6.00;;;4.90;99.90;;;;;;5073995;28;20231;-87
2021/04/05 01:26:53;;;;;;;6.40;5.80;;;4.90;99.90;;;;;;5073581;28;20207;-87
2021/04/05 01:29:19;;;;;;;7.63;5.80;;;4.90;99.90;;;;;;5073967;28;20203;-90
2021/04/05 01:31:45;;;;;;;6.13;5.53;;;5.00;99.90;;;;;;5073240;28;20292;-88
2021/04/05 01:34:11;;;;;;;8.07;6.03;;;4.80;99.90;;;;;;5073822;28;20239;-87
2021/04/05 01:36:37;;;;;;;7.30;6.10;;;4.80;99.90;;;;;;5073984;28;20389;-88
2021/04/05 01:39:04;;;;;;;9.43;6.17;;;4.80;99.90;;;;;;5074120;28;20207;-88
2021/04/05 01:41:32;;;;;;;8.63;6.23;;;4.80;99.90;;;;;;5073468;28;20569;-88
2021/04/05 01:43:59;;;;;;;8.20;5.87;;;4.70;99.90;;;;;;5073652;28;20204;-88
2021/04/05 01:46:27;;;;;;;6.77;6.13;;;4.70;99.90;;;;;;5073376;28;20689;-87
2021/04/05 01:48:53;;;;;;;7.63;6.53;;;4.90;99.90;;;;;;5073523;28;20211;-88
2021/04/05 01:51:20;;;;;;;7.17;6.37;;;5.00;99.90;;;;;;5073686;28;20561;-88
2021/04/05 01:53:48;;;;;;;7.67;6.87;;;5.00;99.90;;;;;;5073526;28;20203;-88
2021/04/05 01:56:17;;;;;;;7.93;7.00;;;5.10;99.90;;;;;;5073193;28;20681;-87
2021/04/05 01:58:46;;;;;;;6.97;6.37;;;4.90;99.90;;;;;;5072809;28;20260;-87
2021/04/05 02:01:14;;;;;;;9.40;7.63;;;4.90;99.90;;;;;;5072967;28;20231;-83
2021/04/05 02:03:41;;;;;;;9.97;7.40;;;4.90;99.90;;;;;;5071376;28;20203;-80
2021/04/05 02:06:12;;;;;;;9.60;8.70;;;4.90;99.90;;;;;;5071089;28;21019;-82
2021/04/05 02:08:38;;;;;;;10.00;7.93;;;4.80;99.90;;;;;;5070203;28;20219;-81
2021/04/05 02:11:08;;;;;;;9.80;8.47;;;4.80;99.90;;;;;;5070263;28;20239;-81
2021/04/05 02:13:35;;;;;;;9.63;7.93;;;4.70;99.90;;;;;;5070441;28;20274;-82
2021/04/05 02:16:02;;;;;;;10.03;9.00;;;4.80;99.90;;;;;;5071056;28;20245;-84
2021/04/05 02:18:29;;;;;;;13.67;8.93;;;4.70;99.90;;;;;;5071895;28;20203;-85
2021/04/05 02:20:56;;;;;;;13.10;8.93;;;4.70;99.90;;;;;;5071896;28;20235;-83
2021/04/05 02:23:25;;;;;;;13.17;9.80;;;4.70;99.90;;;;;;5071411;28;20235;-83
2021/04/05 02:26:06;;;;;;;11.83;9.57;;;4.70;99.90;;;;;;5071235;28;20214;-82
2021/04/05 02:28:35;;;;;;;16.73;10.60;;;4.70;99.90;;;;;;5071257;28;20621;-81
2021/04/05 02:31:01;;;;;;;15.87;10.50;;;4.70;99.90;;;;;;5071160;28;20208;-82
2021/04/05 02:33:27;;;;;;;14.97;10.97;;;4.70;99.90;;;;;;5072100;28;20288;-91
2021/04/05 02:35:54;;;;;;;14.43;11.10;;;4.90;99.90;;;;;;5072596;28;20265;-94
2021/04/05 02:38:21;;;;;;;14.27;11.53;;;4.80;99.90;;;;;;5072829;28;20199;-93
2021/04/05 02:40:47;;;;;;;13.17;11.07;;;4.80;99.90;;;;;;5072513;28;20230;-90
2021/04/05 02:43:13;;;;;;;14.17;10.57;;;4.80;99.90;;;;;;5072479;28;20553;-91
2021/04/05 02:45:41;;;;;;;15.07;11.13;;;4.80;99.90;;;;;;5072402;28;20223;-91
2021/04/05 02:48:10;;;;;;;14.20;11.43;;;4.90;99.90;;;;;;5072430;28;20261;-91
2021/04/05 02:50:37;;;;;;;13.30;10.47;;;4.80;99.90;;;;;;5072757;28;20203;-91
2021/04/05 02:53:05;;;;;;;15.90;11.53;;;4.90;99.90;;;;;;5072465;28;20208;-91
2021/04/05 02:55:32;;;;;;;14.20;10.90;;;4.90;99.90;;;;;;5072655;28;20207;-92
2021/04/05 02:57:58;;;;;;;15.20;10.83;;;4.90;99.90;;;;;;5072411;28;20666;-91
2021/04/05 03:00:27;;;;;;;14.97;10.47;;;5.00;99.90;;;;;;5072345;28;20204;-92
2021/04/05 03:02:55;;;;;;;14.10;10.63;;;5.00;99.90;;;;;;5072113;28;20594;-92
2021/04/05 03:05:23;;;;;;;15.33;10.70;;;5.00;99.90;;;;;;5072189;28;20207;-92
2021/04/05 03:07:49;;;;;;;13.60;10.70;;;4.90;99.90;;;;;;5072011;28;20578;-92
2021/04/05 03:10:18;;;;;;;13.43;10.33;;;5.00;99.90;;;;;;5071035;28;20218;-84
2021/04/05 03:12:45;;;;;;;14.27;10.13;;;5.00;99.90;;;;;;5071254;28;20242;-86
2021/04/05 03:15:13;;;;;;;12.47;9.40;;;5.00;99.90;;;;;;5071278;28;20235;-86
2021/04/05 03:17:41;;;;;;;12.03;9.27;;;5.00;99.90;;;;;;5071605;28;20207;-87
2021/04/05 03:20:10;;;;;;;12.13;9.27;;;4.90;99.90;;;;;;5071491;28;20226;-91
2021/04/05 03:22:39;;;;;;;12.07;9.50;;;4.90;99.90;;;;;;5071476;28;20239;-89
2021/04/05 03:25:07;;;;;;;12.77;9.17;;;4.90;99.90;;;;;;5071076;28;20230;-84
2021/04/05 03:27:33;;;;;;;12.63;9.37;;;5.00;99.90;;;;;;5071185;28;20261;-86
2021/04/05 03:30:01;;;;;;;12.37;9.00;;;5.10;99.90;;;;;;5070658;28;20203;-84
2021/04/05 03:32:29;;;;;;;15.13;8.97;;;5.10;99.90;;;;;;5070595;28;20594;-84
2021/04/05 03:34:58;;;;;;;12.47;9.13;;;5.20;99.90;;;;;;5071410;28;20211;-94
2021/04/05 03:37:27;;;;;;;13.77;9.83;;;5.20;99.90;;;;;;5071589;28;20208;-94
2021/04/05 03:39:53;;;;;;;12.13;9.90;;;5.10;99.90;;;;;;5071689;28;20211;-94
2021/04/05 03:42:25;;;;;;;14.87;9.57;;;5.10;99.90;;;;;;5071676;28;20231;-93
2021/04/05 03:44:57;;;;;;;14.03;9.10;;;5.20;99.90;;;;;;5071365;28;20872;-93
2021/04/05 03:47:29;;;;;;;16.93;10.13;;;5.10;99.90;;;;;;5071543;28;20559;-92
2021/04/05 03:50:02;;;;;;;14.80;10.60;;;5.10;99.90;;;;;;5071490;28;20192;-93
2021/04/05 03:52:35;;;;;;;16.07;10.17;;;5.10;99.90;;;;;;5070864;28;20199;-84
2021/04/05 03:55:05;;;;;;;12.17;9.67;;;5.10;99.90;;;;;;5070472;28;20652;-86
2021/04/05 03:57:35;;;;;;;15.43;10.20;;;5.00;99.90;;;;;;5070381;28;20218;-87
2021/04/05 04:00:08;;;;;;;16.40;9.93;;;5.00;99.90;;;;;;5071244;28;20211;-91
2021/04/05 04:02:40;;;;;;;14.47;10.67;;;5.00;99.90;;;;;;5071437;28;20249;-90
2021/04/05 04:05:09;;;;;;;14.13;9.47;;;4.90;99.90;;;;;;5071629;28;20192;-91
2021/04/05 04:07:40;;;;;;;14.37;10.20;;;5.00;99.90;;;;;;5071983;28;20211;-90
2021/04/05 04:10:10;;;;;;;14.00;10.60;;;5.00;99.90;;;;;;5071406;28;20750;-91
2021/04/05 04:12:38;;;;;;;16.30;10.87;;;5.00;99.90;;;;;;5071731;28;20213;-90
2021/04/05 04:15:07;;;;;;;16.60;10.80;;;5.00;99.90;;;;;;5071005;28;20756;-89
2021/04/05 04:17:34;;;;;;;16.00;10.63;;;5.10;99.90;;;;;;5071356;28;20211;-90
2021/04/05 04:20:04;;;;;;;14.80;11.40;;;5.20;99.90;;;;;;5071170;28;20575;-91
2021/04/05 04:22:32;;;;;;;17.43;11.47;;;5.10;99.90;;;;;;5073817;28;20235;-90
2021/04/05 04:24:59;;;;;;;14.90;11.17;;;5.10;99.90;;;;;;5074961;28;20217;-91
2021/04/05 04:27:26;;;;;;;16.70;11.07;;;5.00;99.90;;;;;;5074943;28;20200;-89
2021/04/05 04:29:55;;;;;;;18.23;11.73;;;5.10;99.90;;;;;;5074982;28;20268;-90
2021/04/05 04:32:22;;;;;;;21.07;12.23;;;5.10;99.90;;;;;;5074882;28;20259;-91
2021/04/05 04:34:48;;;;;;;15.20;11.43;;;5.10;99.90;;;;;;5075071;28;20203;-90
2021/04/05 04:37:14;;;;;;;17.63;12.70;;;5.20;99.90;;;;;;5074834;28;20211;-89
2021/04/05 04:39:41;;;;;;;20.13;13.00;;;5.20;99.90;;;;;;5074798;28;20246;-91
2021/04/05 04:42:10;;;;;;;21.83;14.00;;;5.20;99.90;;;;;;5074414;28;20701;-90
2021/04/05 04:44:36;;;;;;;20.67;13.10;;;5.10;99.90;;;;;;5074912;28;20266;-90
2021/04/05 04:47:03;;;;;;;18.23;13.37;;;5.20;99.90;;;;;;5074889;28;20214;-89
2021/04/05 04:49:29;;;;;;;17.57;12.37;;;5.20;99.90;;;;;;5074542;28;20203;-88
2021/04/05 04:51:55;;;;;;;21.63;13.47;;;5.20;99.90;;;;;;5074436;28;20204;-92
2021/04/05 04:54:22;;;;;;;18.80;12.77;;;5.20;99.90;;;;;;5074841;28;20265;-93
2021/04/05 04:56:48;;;;;;;18.80;13.27;;;5.40;99.90;;;;;;5074645;28;20210;-91
2021/04/05 04:59:16;;;;;;;21.40;12.97;;;5.30;99.90;;;;;;5074575;28;20204;-90
2021/04/05 05:01:44;;;;;;;18.13;14.43;;;5.30;99.90;;;;;;5074263;28;20204;-86
2021/04/05 05:04:15;;;;;;;21.93;14.03;;;5.30;99.90;;;;;;5074048;28;20250;-88
2021/04/05 05:06:43;;;;;;;18.83;13.30;;;5.30;99.90;;;;;;5074040;28;20195;-88
2021/04/05 05:09:09;;;;;;;20.73;13.23;;;5.30;99.90;;;;;;5074083;28;20243;-87
2021/04/05 05:11:36;;;;;;;23.20;15.00;;;5.30;99.90;;;;;;5074376;28;20211;-88
2021/04/05 05:14:03;;;;;;;19.90;14.43;;;5.30;99.90;;;;;;5073470;28;20231;-91
2021/04/05 05:16:30;;;;;;;20.33;13.93;;;5.30;99.90;;;;;;5074230;28;20204;-91
2021/04/05 05:18:58;;;;;;;22.20;15.20;;;5.30;99.90;;;;;;5074021;28;20211;-91
2021/04/05 05:21:29;;;;;;;19.10;13.90;;;5.40;99.90;;;;;;5074221;28;20261;-90
2021/04/05 05:23:58;;;;;;;20.87;14.37;;;5.40;99.90;;;;;;5074201;28;20231;-90
2021/04/05 05:26:26;;;;;;;21.33;15.00;;;5.40;99.90;;;;;;5073711;28;20204;-85
2021/04/05 05:28:55;;;;;;;22.83;15.33;;;5.50;99.90;;;;;;5073269;28;20323;-87
2021/04/05 05:31:21;;;;;;;19.47;13.63;;;5.50;99.90;;;;;;5073795;28;20210;-86
2021/04/05 05:33:48;;;;;;;21.50;14.90;;;5.50;99.90;;;;;;5072482;28;20227;-88
2021/04/05 05:36:16;;;;;;;20.53;14.53;;;5.60;99.90;;;;;;5073580;28;20207;-91
2021/04/05 05:38:43;;;;;;;23.63;15.63;;;5.60;99.90;;;;;;5073823;28;20242;-90
2021/04/05 05:41:18;;;;;;;20.77;14.13;;;5.60;99.90;;;;;;5074017;28;20242;-92
2021/04/05 05:43:47;;;;;;;21.53;14.80;;;5.60;99.90;;;;;;5073814;28;20226;-92
2021/04/05 05:46:21;;;;;;;18.13;13.63;;;5.60;99.90;;;;;;5073477;28;20207;-91
2021/04/05 05:49:14;;;;;;;21.47;13.60;;;5.60;99.90;;;;;;5073770;28;20252;-92
2021/04/05 05:51:54;;;;;;;19.50;13.30;;;5.70;99.90;;;;;;5073888;28;20191;-90
2021/04/05 05:54:28;;;;;;;24.17;14.30;;;5.70;99.90;;;;;;5073679;28;20195;-92
2021/04/05 05:57:03;;;;;;;18.07;13.67;;;5.70;99.90;;;;;;5073510;28;20202;-92
2021/04/05 05:59:36;;;;;;;20.13;14.47;;;5.80;99.90;;;;;;5073765;28;20191;-92
2021/04/05 06:02:11;;;;;;;19.77;13.93;;;5.80;99.90;;;;;;5073240;28;20227;-92
2021/04/05 06:05:06;;;;;;;20.17;14.43;;;5.80;99.90;;;;;;5073196;28;20199;-94
2021/04/05 06:07:37;;;;;;;21.70;14.50;;;5.80;99.90;;;;;;5072125;28;20202;-86
2021/04/05 06:10:10;;;;;;;23.03;14.07;;;5.90;99.90;;;;;;5072479;28;20191;-83
2021/04/05 06:12:44;;;;;;;21.03;14.03;;;5.90;99.90;;;;;;5072749;28;20200;-87
2021/04/05 06:15:17;;;;;;;17.87;13.07;;;5.90;99.90;;;;;;5071587;28;20238;-85
2021/04/05 06:18:02;;;;;;;21.33;13.87;;;6.00;99.90;;;;;;5072436;28;20196;-85
2021/04/05 06:20:37;;;;;;;19.37;13.47;;;6.10;99.90;;;;;;5072007;28;20191;-85
2021/04/05 06:23:23;;;;;;;19.63;13.47;;;6.10;99.90;;;;;;5072126;28;20272;-85
2021/04/05 06:26:02;;;;;;;20.77;14.07;;;6.10;99.90;;;;;;5072302;28;20646;-87
2021/04/05 06:28:36;;;;;;;21.40;13.23;;;6.20;99.90;;;;;;5071375;28;20203;-83
2021/04/05 06:31:18;;;;;;;20.27;13.50;;;6.20;99.90;;;;;;5070689;28;20202;-83
2021/04/05 06:33:48;;;;;;;19.10;13.23;;;6.20;99.90;;;;;;5071008;28;20756;-87
2021/04/05 06:36:21;;;;;;;18.10;13.30;;;6.30;99.90;;;;;;5072017;28;20192;-87
2021/04/05 06:38:48;;;;;;;21.63;13.47;;;6.30;99.90;;;;;;5072245;28;20195;-86
2021/04/05 06:41:36;;;;;;;20.17;14.00;;;6.30;99.90;;;;;;5071844;28;20210;-86
2021/04/05 06:44:23;;;;;;;21.37;13.53;;;6.30;99.90;;;;;;5071327;28;20235;-86
2021/04/05 06:47:11;;;;;;;18.17;13.47;;;6.40;99.90;;;;;;5072004;28;20238;-89
2021/04/05 06:50:04;;;;;;;21.17;14.20;;;6.40;99.90;;;;;;5072118;28;20196;-89
2021/04/05 06:52:54;;;;;;;21.00;14.10;;;6.50;99.90;;;;;;5062821;28;20670;-88
2021/04/05 06:55:34;;;;;;;22.93;13.30;;;6.50;99.90;;;;;;5071930;28;20198;-90
2021/04/05 06:58:13;;;;;;;23.17;14.83;;;6.50;99.90;;;;;;5082432;28;20194;-86
2021/04/05 07:00:53;;;;;;;21.60;13.30;;;6.60;99.90;;;;;;5092068;28;20634;-91
2021/04/05 07:03:40;;;;;;;21.20;13.23;;;6.60;99.90;;;;;;5092080;28;20229;-92
2021/04/05 07:06:17;;;;;;;19.53;13.53;;;6.60;99.90;;;;;;5083405;28;20188;-88
2021/04/05 07:08:54;;;;;;;19.77;13.83;;;6.60;99.90;;;;;;5074357;28;20219;-89
2021/04/05 07:11:25;;;;;;;17.37;12.93;;;6.60;99.90;;;;;;5079877;28;20195;-80
2021/04/05 07:14:02;;;;;;;21.27;13.70;;;6.60;99.90;;;;;;5081457;28;20226;-89
2021/04/05 07:16:46;;;;;;;19.43;13.67;;;6.60;99.90;;;;;;5092003;28;20230;-89
2021/04/05 07:19:25;;;;;;;20.20;13.27;;;6.50;99.90;;;;;;5091834;28;20199;-88
2021/04/05 07:22:04;;;;;;;22.93;14.20;;;6.50;99.90;;;;;;5091750;28;20194;-89
2021/04/05 07:24:35;;;;;;;22.93;14.37;;;6.50;99.90;;;;;;5091680;28;20191;-90
2021/04/05 07:27:09;;;;;;;21.43;14.37;;;6.50;99.90;;;;;;5083863;28;20191;-88
2021/04/05 07:29:43;;;;;;;23.03;15.03;;;6.40;99.90;;;;;;5070821;28;20188;-89
2021/04/05 07:32:20;;;;;;;26.73;14.87;;;6.40;99.90;;;;;;5071209;28;20600;-91
2021/04/05 07:34:57;;;;;;;20.87;14.30;;;6.40;99.90;;;;;;5072932;28;20202;-91
2021/04/05 07:37:32;;;;;;;22.93;14.73;;;6.30;99.90;;;;;;5087039;28;20203;-89
2021/04/05 07:40:07;;;;;;;22.97;15.13;;;6.30;99.90;;;;;;5081802;28;20231;-89
2021/04/05 07:42:45;;;;;;;20.83;15.13;;;6.30;99.90;;;;;;5081068;28;20215;-91
2021/04/05 07:45:17;;;;;;;21.37;14.80;;;6.30;99.90;;;;;;5072337;28;20195;-90
2021/04/05 07:47:51;;;;;;;24.43;15.80;;;6.30;99.90;;;;;;5085717;28;20191;-92
2021/04/05 07:50:26;;;;;;;22.70;15.40;;;6.20;99.90;;;;;;5086956;28;20201;-92
2021/04/05 07:52:58;;;;;;;27.87;15.50;;;6.20;99.90;;;;;;5084074;28;20222;-92
2021/04/05 07:55:26;;;;;;;24.43;15.80;;;6.20;99.90;;;;;;5086997;28;20191;-90
2021/04/05 07:58:01;;;;;;;21.67;15.80;;;6.20;99.90;;;;;;5090682;28;20245;-93
2021/04/05 08:00:33;;;;;;;26.97;16.93;;;6.10;99.90;;;;;;5091259;28;20200;-91
2021/04/05 08:03:08;;;;;;;20.83;15.70;;;6.10;99.90;;;;;;5091062;28;20261;-93
2021/04/05 08:05:52;;;;;;;26.77;16.20;;;6.00;99.90;;;;;;5081575;28;20249;-91
2021/04/05 08:08:40;;;;;;;23.53;15.37;;;6.00;99.90;;;;;;5077450;28;20190;-89
2021/04/05 08:11:21;;;;;;;23.00;16.07;;;6.00;99.90;;;;;;5078610;28;20226;-86
2021/04/05 08:13:57;;;;;;;22.87;15.90;;;6.00;99.90;;;;;;5085177;28;20346;-77
2021/04/05 08:16:32;;;;;;;25.23;15.93;;;6.10;99.90;;;;;;5081009;28;20198;-90
2021/04/05 08:19:14;;;;;;;26.47;16.57;;;6.00;99.90;;;;;;5087156;28;20236;-88
2021/04/05 08:21:49;;;;;;;26.07;17.57;;;5.90;99.90;;;;;;5090201;28;20224;-88
2021/04/05 08:24:24;;;;;;;28.33;16.53;;;5.90;99.90;;;;;;5083031;28;20303;-77
2021/04/05 08:26:59;;;;;;;24.23;16.17;;;5.80;99.90;;;;;;5080948;28;20229;-87
2021/04/05 08:29:34;;;;;;;29.10;17.40;;;5.70;99.90;;;;;;5073631;28;20249;-91
2021/04/05 08:32:14;;;;;;;29.63;18.17;;;5.60;99.90;;;;;;5071086;28;20300;-89
2021/04/05 08:35:00;;;;;;;33.67;19.03;;;5.60;99.90;;;;;;5070937;28;20196;-87
2021/04/05 08:37:44;;;;;;;27.17;18.77;;;5.50;99.90;;;;;;5071316;28;20264;-89
2021/04/05 08:40:15;;;;;;;29.83;18.60;;;5.50;99.90;;;;;;5070672;28;20196;-89
2021/04/05 08:42:49;;;;;;;30.77;19.53;;;5.50;99.90;;;;;;5070907;28;20219;-88
2021/04/05 08:45:19;;;;;;;34.30;20.70;;;5.50;99.90;;;;;;5070670;28;20195;-87
2021/04/05 08:47:52;;;;;;;39.70;21.23;;;5.50;99.90;;;;;;5070220;28;20256;-89
2021/04/05 08:50:22;;;;;;;34.87;20.40;;;5.50;99.90;;;;;;5070519;28;20250;-87
2021/04/05 08:52:51;;;;;;;34.23;21.27;;;5.50;99.90;;;;;;5071783;28;20701;-87
2021/04/05 08:55:21;;;;;;;39.60;21.03;;;5.50;99.90;;;;;;5089970;28;20213;-86
2021/04/05 08:57:54;;;;;;;38.17;22.63;;;5.50;99.90;;;;;;5089158;28;20195;-81
2021/04/05 09:00:23;;;;;;;40.67;20.33;;;5.60;99.90;;;;;;5088261;28;20588;-81
2021/04/05 09:02:53;;;;;;;31.93;19.70;;;5.60;99.90;;;;;;5079727;28;20281;-89
2021/04/05 09:05:21;;;;;;;36.43;20.00;;;5.60;99.90;;;;;;5073900;28;20282;-88
2021/04/05 09:08:02;;;;;;;34.07;19.03;;;5.50;99.90;;;;;;5086270;28;20199;-87
2021/04/05 09:10:31;;;;;;;31.73;19.93;;;5.50;99.90;;;;;;5076180;28;20724;-87
2021/04/05 09:13:00;;;;;;;32.87;19.83;;;5.50;99.90;;;;;;5090658;28;20378;-88
2021/04/05 09:15:58;;;;;;;35.10;19.40;;;5.40;99.90;;;;;;5082048;28;20239;-87
2021/04/05 09:18:47;;;;;;;17.77;12.10;;;5.30;99.90;;;;;;5090257;28;20206;-88
2021/04/05 09:21:23;;;;;;;4.60;3.50;;;5.10;99.90;;;;;;5073863;28;20245;-87
2021/04/05 09:24:02;;;;;;;3.33;2.80;;;5.00;99.90;;;;;;5089737;28;20218;-91
2021/04/05 09:27:07;;;;;;;2.87;2.10;;;4.80;99.90;;;;;;5074129;28;20281;-86
2021/04/05 09:29:41;;;;;;;1.90;1.80;;;4.80;99.90;;;;;;5076949;28;20210;-87
2021/04/05 09:32:35;;;;;;;1.63;1.53;;;4.90;99.90;;;;;;5084314;28;20228;-89
2021/04/05 09:35:25;;;;;;;1.33;1.23;;;4.90;99.90;;;;;;5072611;28;20509;-90
2021/04/05 09:38:08;;;;;;;1.43;1.13;;;4.80;99.90;;;;;;5069960;28;20858;-89
2021/04/05 09:40:57;;;;;;;0.90;0.90;;;4.90;99.90;;;;;;5072732;28;20254;-89
2021/04/05 09:43:42;;;;;;;1.20;1.00;;;4.70;99.90;;;;;;5069166;28;20519;-90
2021/04/05 09:46:26;;;;;;;0.70;0.70;;;4.90;99.90;;;;;;5072627;28;20192;-89
2021/04/05 09:49:02;;;;;;;0.80;0.80;;;4.70;99.90;;;;;;5073367;28;20203;-90
2021/04/05 09:51:50;;;;;;;0.80;0.80;;;4.70;99.90;;;;;;5073242;28;20297;-89
2021/04/05 09:54:29;;;;;;;1.33;0.67;;;4.60;99.90;;;;;;5073323;28;20202;-87
2021/04/05 09:57:00;;;;;;;1.27;0.70;;;4.50;99.90;;;;;;5073403;28;20237;-89
2021/04/05 09:59:36;;;;;;;0.57;0.50;;;4.50;99.90;;;;;;5073169;28;20523;-89
2021/04/05 10:02:06;;;;;;;1.03;0.77;;;4.50;99.90;;;;;;5073000;28;20195;-90
2021/04/05 10:04:35;;;;;;;0.63;0.63;;;4.50;99.90;;;;;;5073432;28;20256;-89
2021/04/05 10:07:05;;;;;;;0.70;0.70;;;4.50;99.90;;;;;;5073281;28;20214;-88
2021/04/05 10:09:32;;;;;;;0.73;0.50;;;4.50;99.90;;;;;;5073022;28;20258;-89
2021/04/05 10:12:02;;;;;;;0.50;0.50;;;4.50;99.90;;;;;;5073077;28;20207;-89
2021/04/05 10:14:29;;;;;;;0.53;0.53;;;4.50;99.90;;;;;;5072660;28;20239;-89
2021/04/05 10:16:57;;;;;;;0.70;0.70;;;4.50;99.90;;;;;;5072853;28;20210;-90
2021/04/05 10:19:28;;;;;;;0.70;0.70;;;4.50;99.90;;;;;;5072095;28;20211;-89
2021/04/05 10:22:02;;;;;;;1.20;1.10;;;4.60;99.90;;;;;;5072928;28;20195;-89
2021/04/05 10:24:31;;;;;;;0.80;0.80;;;4.60;99.90;;;;;;5072874;28;20551;-89
2021/04/05 10:26:59;;;;;;;0.70;0.70;;;4.60;99.90;;;;;;5072758;28;20294;-88
2021/04/05 10:29:29;;;;;;;0.60;0.60;;;4.70;99.90;;;;;;5072300;28;20261;-90
2021/04/05 10:31:58;;;;;;;1.13;1.00;;;4.70;99.90;;;;;;5072534;28;20586;-90
2021/04/05 10:34:27;;;;;;;0.93;0.93;;;4.70;99.90;;;;;;5072367;28;20337;-89
2021/04/05 10:36:59;;;;;;;1.80;1.20;;;4.90;99.90;;;;;;5071903;28;20706;-90
2021/04/05 10:39:26;;;;;;;0.97;0.97;;;4.90;99.90;;;;;;5072160;28;20199;-89
2021/04/05 10:41:58;;;;;;;1.17;0.80;;;5.00;99.90;;;;;;5072507;28;20360;-90
2021/04/05 10:44:27;;;;;;;2.47;0.90;;;5.00;99.90;;;;;;5072014;28;20223;-90
2021/04/05 10:46:59;;;;;;;1.00;1.00;;;4.90;99.90;;;;;;5072242;28;20209;-90
2021/04/05 10:49:28;;;;;;;1.00;1.00;;;5.00;99.90;;;;;;5071369;28;20235;-90
2021/04/05 10:52:00;;;;;;;1.50;1.40;;;5.10;99.90;;;;;;5071688;28;20204;-90
2021/04/05 10:54:29;;;;;;;1.83;1.73;;;5.10;99.90;;;;;;5071994;28;20204;-90
2021/04/05 10:57:02;;;;;;;1.60;1.50;;;5.10;99.90;;;;;;5071984;28;20253;-90
2021/04/05 10:59:32;;;;;;;1.17;1.17;;;5.10;99.90;;;;;;5071648;28;20196;-89
2021/04/05 11:02:06;;;;;;;2.30;1.07;;;5.20;99.90;;;;;;5071970;28;20207;-89
2021/04/05 11:04:35;;;;;;;1.13;1.13;;;5.10;99.90;;;;;;5071952;28;20202;-90
2021/04/05 11:07:02;;;;;;;1.53;1.00;;;5.20;99.90;;;;;;5071886;28;20211;-89
2021/04/05 11:09:31;;;;;;;3.37;1.20;;;5.10;99.90;;;;;;5071739;28;20215;-89
2021/04/05 11:12:00;;;;;;;0.77;0.77;;;5.10;99.90;;;;;;5071496;28;20650;-89
2021/04/05 11:14:27;;;;;;;1.30;1.07;;;5.10;99.90;;;;;;5071408;28;20239;-90
2021/04/05 11:16:57;;;;;;;1.00;0.57;;;5.10;99.90;;;;;;5071478;28;20207;-90
2021/04/05 11:19:28;;;;;;;1.20;1.20;;;5.10;99.90;;;;;;5071548;28;20200;-90
2021/04/05 11:21:57;;;;;;;1.10;1.10;;;5.20;99.90;;;;;;5071610;28;20207;-89
2021/04/05 11:24:30;;;;;;;0.87;0.80;;;5.30;99.90;;;;;;5071673;28;20235;-90
2021/04/05 11:26:58;;;;;;;0.60;0.60;;;5.40;99.90;;;;;;5071536;28;20556;-89
2021/04/05 11:29:26;;;;;;;1.40;0.70;;;5.40;99.90;;;;;;5071425;28;20207;-89
2021/04/05 11:31:57;;;;;;;1.03;0.60;;;5.40;99.90;;;;;;5070541;28;20226;-89
2021/04/05 11:34:27;;;;;;;2.43;0.63;;;5.40;99.90;;;;;;5071476;28;20206;-89
2021/04/05 11:36:58;;;;;;;0.70;0.70;;;5.40;99.90;;;;;;5070621;28;20207;-90
2021/04/05 11:39:29;;;;;;;0.60;0.60;;;5.40;99.90;;;;;;5071345;28;20222;-90
2021/04/05 11:41:58;;;;;;;1.20;1.03;;;5.50;99.90;;;;;;5071066;28;20191;-89
2021/04/05 11:44:28;;;;;;;2.60;2.07;;;5.60;99.90;;;;;;5071131;28;20266;-89
2021/04/05 11:46:57;;;;;;;4.50;1.73;;;5.70;99.90;;;;;;5071516;28;20226;-89
2021/04/05 11:49:30;;;;;;;2.07;0.90;;;5.70;99.90;;;;;;5071117;28;20199;-90
2021/04/05 11:52:04;;;;;;;1.43;0.90;;;5.70;99.90;;;;;;5071130;28;20196;-88
2021/04/05 11:54:37;;;;;;;1.00;1.00;;;5.50;99.90;;;;;;5071117;28;20606;-88
2021/04/05 11:57:09;;;;;;;1.00;0.90;;;5.10;99.90;;;;;;5071126;28;20198;-90
2021/04/05 11:59:39;;;;;;;1.10;1.00;;;4.60;99.90;;;;;;5071071;28;20196;-88
2021/04/05 12:02:18;;;;;;;1.20;1.10;;;4.40;99.90;;;;;;5071170;28;20199;-89
2021/04/05 12:04:49;;;;;;;1.07;1.07;;;4.20;99.90;;;;;;5071081;28;20200;-89
2021/04/05 12:07:20;;;;;;;1.03;1.03;;;4.40;99.90;;;;;;5071258;28;20196;-88
2021/04/05 12:09:51;;;;;;;0.73;0.53;;;4.50;99.90;;;;;;5071235;28;20196;-89
2021/04/05 12:12:21;;;;;;;1.03;0.70;;;4.50;99.90;;;;;;5070952;28;20245;-88
2021/04/05 12:14:53;;;;;;;2.37;0.90;;;4.70;99.90;;;;;;5070335;28;20847;-89
2021/04/05 12:17:21;;;;;;;2.00;0.50;;;4.90;99.90;;;;;;5070992;28;20666;-89
2021/04/05 12:19:49;;;;;;;0.60;0.60;;;5.30;99.90;;;;;;5071042;28;20214;-89
2021/04/05 12:22:18;;;;;;;1.00;0.50;;;5.60;99.90;;;;;;5070642;28;20214;-87
2021/04/05 12:24:50;;;;;;;0.40;0.40;;;5.50;99.90;;;;;;5070884;28;20242;-89
2021/04/05 12:27:17;;;;;;;0.20;0.20;;;5.30;99.90;;;;;;5070781;28;20198;-89
2021/04/05 12:29:45;;;;;;;0.20;0.20;;;5.50;99.90;;;;;;5070297;28;20208;-89
2021/04/05 12:32:16;;;;;;;0.53;0.23;;;5.50;99.90;;;;;;5070817;28;20233;-89
2021/04/05 12:34:42;;;;;;;0.30;0.30;;;5.60;99.90;;;;;;5070592;28;20685;-89
2021/04/05 12:37:13;;;;;;;0.10;0.10;;;5.70;99.90;;;;;;5070818;28;20203;-89
2021/04/05 12:39:42;;;;;;;0.03;0.03;;;5.80;99.90;;;;;;5070923;28;20203;-89
2021/04/05 12:42:10;;;;;;;0.33;0.33;;;5.80;99.90;;;;;;5071183;28;20240;-89
2021/04/05 12:44:38;;;;;;;1.60;0.30;;;5.80;99.90;;;;;;5074420;28;20239;-89
2021/04/05 12:47:08;;;;;;;0.13;0.13;;;5.90;99.90;;;;;;5074618;28;20204;-89
2021/04/05 12:49:37;;;;;;;0.23;0.23;;;5.80;99.90;;;;;;5074496;28;20192;-89
2021/04/05 12:52:05;;;;;;;0.67;0.20;;;6.00;99.90;;;;;;5074337;28;20306;-90
2021/04/05 12:54:36;;;;;;;0.57;0.30;;;6.10;99.90;;;;;;5074193;28;20332;-89
2021/04/05 12:57:05;;;;;;;0.57;0.37;;;6.20;99.90;;;;;;5074220;28;20196;-89
2021/04/05 12:59:35;;;;;;;0.40;0.40;;;6.20;99.90;;;;;;5074084;28;20214;-90
2021/04/05 13:02:06;;;;;;;0.30;0.30;;;6.30;99.90;;;;;;5074280;28;20215;-89
2021/04/05 13:04:36;;;;;;;1.40;0.47;;;6.20;99.90;;;;;;5073632;28;20231;-89
2021/04/05 13:07:09;;;;;;;0.37;0.20;;;6.30;99.90;;;;;;5074053;28;20200;-90